createdAt,value
2022-09-12T00:01:22.144Z,100757.53
2022-09-12T00:03:53.146Z,100764.31
2022-09-12T00:06:23.935Z,100754.31
2022-09-12T00:08:52.484Z,100757.72
2022-09-12T00:11:20.825Z,100752.78
2022-09-12T00:13:49.661Z,100756.88
2022-09-12T00:16:18.961Z,100759.97
2022-09-12T00:18:47.802Z,100756.03
2022-09-12T00:21:19.179Z,100754.28
2022-09-12T00:23:48.148Z,100750.13
2022-09-12T00:26:17.292Z,100743.47
2022-09-12T00:28:46.384Z,100734.84
2022-09-12T00:31:17.015Z,100732.13
2022-09-12T00:33:45.684Z,100737.22
2022-09-12T00:36:16.357Z,100733.19
2022-09-12T00:38:46.793Z,100736.47
2022-09-12T00:41:17.965Z,100738.00
2022-09-12T00:43:48.228Z,100731.81
2022-09-12T00:46:29.752Z,100728.69
2022-09-12T00:49:01.905Z,100734.38
2022-09-12T00:51:33.402Z,100723.63
2022-09-12T00:54:06.959Z,100730.34
2022-09-12T00:56:36.837Z,100733.66
2022-09-12T00:59:11.593Z,100732.19
2022-09-12T01:01:41.847Z,100734.09
2022-09-12T01:04:11.374Z,100732.22
2022-09-12T01:06:43.289Z,100727.44
2022-09-12T01:09:17.013Z,100732.53
2022-09-12T01:11:47.265Z,100724.41
2022-09-12T01:14:16.007Z,100718.59
2022-09-12T01:16:45.922Z,100721.72
2022-09-12T01:19:43.498Z,100716.22
2022-09-12T01:22:28.011Z,100714.00
2022-09-12T01:25:08.226Z,100711.09
2022-09-12T01:27:50.477Z,100706.25
2022-09-12T01:30:48.785Z,100706.81
2022-09-12T01:33:45.206Z,100701.13
2022-09-12T01:36:28.857Z,100700.00
2022-09-12T01:39:02.323Z,100692.41
2022-09-12T01:41:37.026Z,100695.97
2022-09-12T01:44:14.990Z,100693.25
2022-09-12T01:46:50.093Z,100684.31
2022-09-12T01:49:23.017Z,100683.44
2022-09-12T01:51:58.798Z,100678.03
2022-09-12T01:54:33.104Z,100675.97
2022-09-12T01:57:08.348Z,100670.56
2022-09-12T01:59:41.797Z,100670.31
2022-09-12T02:02:16.610Z,100661.31
2022-09-12T02:04:52.219Z,100659.00
2022-09-12T02:07:24.006Z,100657.16
2022-09-12T02:09:55.738Z,100661.22
2022-09-12T02:12:29.196Z,100649.03
2022-09-12T02:15:02.360Z,100649.22
2022-09-12T02:17:35.685Z,100651.34
2022-09-12T02:20:08.239Z,100650.59
2022-09-12T02:22:39.049Z,100646.13
2022-09-12T02:25:10.646Z,100649.28
2022-09-12T02:27:42.508Z,100646.88
2022-09-12T02:30:14.445Z,100644.41
2022-09-12T02:32:55.387Z,100634.97
2022-09-12T02:35:32.993Z,100639.44
2022-09-12T02:38:07.428Z,100630.63
2022-09-12T02:40:36.178Z,100630.09
2022-09-12T02:43:05.894Z,100629.38
2022-09-12T02:45:35.309Z,100622.28
2022-09-12T02:48:12.778Z,100616.16
2022-09-12T02:50:42.025Z,100609.63
2022-09-12T02:53:11.698Z,100616.00
2022-09-12T02:55:42.582Z,100617.34
2022-09-12T02:58:16.134Z,100606.56
2022-09-12T03:00:53.210Z,100602.47
2022-09-12T03:03:43.295Z,100604.44
2022-09-12T03:06:19.972Z,100594.13
2022-09-12T03:09:01.982Z,100597.78
2022-09-12T03:11:58.141Z,100585.50
2022-09-12T03:14:44.094Z,100595.09
2022-09-12T03:17:24.896Z,100602.81
2022-09-12T03:20:02.917Z,100594.59
2022-09-12T03:22:38.024Z,100597.56
2022-09-12T03:25:17.520Z,100586.97
2022-09-12T03:27:52.379Z,100583.94
2022-09-12T03:30:20.623Z,100582.47
2022-09-12T03:32:50.996Z,100576.22
2022-09-12T03:35:23.173Z,100570.81
2022-09-12T03:37:52.816Z,100577.81
2022-09-12T03:40:21.402Z,100571.06
2022-09-12T03:42:50.392Z,100576.19
2022-09-12T03:45:18.649Z,100577.09
2022-09-12T03:47:46.765Z,100564.66
2022-09-12T03:50:15.377Z,100568.59
2022-09-12T03:52:44.877Z,100567.63
2022-09-12T03:55:13.804Z,100565.66
2022-09-12T03:57:41.961Z,100567.63
2022-09-12T04:00:11.057Z,100563.59
2022-09-12T04:02:39.248Z,100567.00
2022-09-12T04:05:07.829Z,100572.03
2022-09-12T04:07:36.002Z,100575.84
2022-09-12T04:10:06.265Z,100576.50
2022-09-12T04:12:35.648Z,100577.72
2022-09-12T04:15:03.945Z,100576.88
2022-09-12T04:17:32.137Z,100565.22
2022-09-12T04:20:00.288Z,100564.47
2022-09-12T04:22:29.940Z,100558.50
2022-09-12T04:24:58.122Z,100559.84
2022-09-12T04:27:27.685Z,100559.59
2022-09-12T04:29:56.277Z,100565.25
2022-09-12T04:32:24.397Z,100563.28
2022-09-12T04:34:53.526Z,100566.94
2022-09-12T04:37:23.637Z,100563.53
2022-09-12T04:39:56.095Z,100556.06
2022-09-12T04:42:24.603Z,100554.47
2022-09-12T04:44:54.737Z,100562.53
2022-09-12T04:47:23.210Z,100559.50
2022-09-12T04:49:52.498Z,100558.13
2022-09-12T04:52:20.789Z,100552.63
2022-09-12T04:54:48.986Z,100555.31
2022-09-12T04:57:17.140Z,100555.47
2022-09-12T04:59:45.277Z,100555.81
2022-09-12T05:02:14.818Z,100557.16
2022-09-12T05:04:43.025Z,100548.19
2022-09-12T05:07:11.981Z,100543.44
2022-09-12T05:09:40.154Z,100535.22
2022-09-12T05:12:09.489Z,100534.88
2022-09-12T05:14:37.977Z,100541.72
2022-09-12T05:17:07.081Z,100539.88
2022-09-12T05:19:36.976Z,100542.31
2022-09-12T05:22:06.758Z,100530.78
2022-09-12T05:24:35.297Z,100534.59
2022-09-12T05:27:04.951Z,100531.91
2022-09-12T05:29:34.174Z,100534.22
2022-09-12T05:32:02.701Z,100529.81
2022-09-12T05:34:30.850Z,100535.09
2022-09-12T05:37:00.406Z,100535.59
2022-09-12T05:39:28.594Z,100534.72
2022-09-12T05:41:56.884Z,100534.34
2022-09-12T05:44:25.125Z,100536.81
2022-09-12T05:46:53.735Z,100539.63
2022-09-12T05:49:22.685Z,100542.78
2022-09-12T05:51:51.678Z,100542.31
2022-09-12T05:54:21.537Z,100540.50
2022-09-12T05:56:50.121Z,100535.84
2022-09-12T05:59:20.574Z,100539.50
2022-09-12T06:01:49.805Z,100543.31
2022-09-12T06:04:18.241Z,100533.59
2022-09-12T06:06:47.459Z,100539.50
2022-09-12T06:09:17.321Z,100534.47
2022-09-12T06:11:47.798Z,100529.56
2022-09-12T06:14:18.032Z,100530.13
2022-09-12T06:16:47.236Z,100527.94
2022-09-12T06:19:18.132Z,100529.78
2022-09-12T06:21:47.701Z,100534.75
2022-09-12T06:24:15.923Z,100535.97
2022-09-12T06:26:44.666Z,100548.25
2022-09-12T06:29:14.925Z,100540.16
2022-09-12T06:31:44.039Z,100527.59
2022-09-12T06:34:14.129Z,100534.75
2022-09-12T06:36:44.986Z,100541.09
2022-09-12T06:39:14.732Z,100547.31
2022-09-12T06:41:44.255Z,100546.84
2022-09-12T06:44:17.196Z,100551.47
2022-09-12T06:46:45.755Z,100547.63
2022-09-12T06:49:14.277Z,100541.84
2022-09-12T06:51:43.341Z,100550.84
2022-09-12T06:54:14.452Z,100540.38
2022-09-12T06:56:42.602Z,100545.50
2022-09-12T06:59:11.496Z,100537.13
2022-09-12T07:01:42.950Z,100543.44
2022-09-12T07:04:11.645Z,100544.06
2022-09-12T07:06:41.564Z,100559.34
2022-09-12T07:09:12.543Z,100558.28
2022-09-12T07:11:52.932Z,100556.66
2022-09-12T07:14:21.155Z,100564.19
2022-09-12T07:16:50.737Z,100566.75
2022-09-12T07:19:18.958Z,100574.44
2022-09-12T07:21:47.123Z,100554.59
2022-09-12T07:24:15.418Z,100554.69
2022-09-12T07:26:44.130Z,100554.78
2022-09-12T07:32:07.737Z,100548.22
2022-09-12T07:34:36.436Z,100547.22
2022-09-12T07:37:04.781Z,100534.63
2022-09-12T07:39:33.527Z,100535.84
2022-09-12T07:42:01.691Z,100532.69
2022-09-12T07:44:30.280Z,100535.50
2022-09-12T07:46:58.470Z,100530.50
2022-09-12T07:49:27.973Z,100532.94
2022-09-12T07:51:56.158Z,100530.28
2022-09-12T07:54:24.465Z,100527.66
2022-09-12T07:56:52.774Z,100526.69
2022-09-12T07:59:41.556Z,100524.44
2022-09-12T08:02:17.191Z,100511.34
2022-09-12T08:04:48.561Z,100502.78
2022-09-12T08:07:18.449Z,100508.59
2022-09-12T08:09:46.697Z,100500.97
2022-09-12T08:12:15.701Z,100498.94
2022-09-12T08:14:43.850Z,100505.66
2022-09-12T08:17:12.066Z,100499.38
2022-09-12T08:19:40.227Z,100497.31
2022-09-12T08:22:09.930Z,100504.28
2022-09-12T08:24:39.389Z,100500.72
2022-09-12T08:27:07.863Z,100506.91
2022-09-12T08:29:36.035Z,100510.13
2022-09-12T08:32:05.085Z,100510.28
2022-09-12T08:34:33.322Z,100509.34
2022-09-12T08:37:01.479Z,100512.91
2022-09-12T08:39:31.033Z,100514.00
2022-09-12T08:42:03.129Z,100516.03
2022-09-12T08:44:59.954Z,100513.00
2022-09-12T08:47:32.695Z,100514.66
2022-09-12T08:50:11.799Z,100510.63
2022-09-12T08:52:49.189Z,100515.69
2022-09-12T08:55:36.965Z,100510.34
2022-09-12T08:58:14.655Z,100506.56
2022-09-12T09:00:50.822Z,100499.84
2022-09-12T09:03:57.264Z,100504.66
2022-09-12T09:06:43.561Z,100496.50
2022-09-12T09:09:21.554Z,100500.94
2022-09-12T09:12:01.877Z,100489.84
2022-09-12T09:14:50.881Z,100501.84
2022-09-12T09:17:28.097Z,100505.13
2022-09-12T09:20:05.054Z,100495.63
2022-09-12T09:22:39.586Z,100500.44
2022-09-12T09:25:13.803Z,100487.28
2022-09-12T09:27:50.458Z,100483.81
2022-09-12T09:30:21.626Z,100479.47
2022-09-12T09:32:53.691Z,100479.22
2022-09-12T09:35:36.240Z,100483.59
2022-09-12T09:38:19.130Z,100475.28
2022-09-12T09:40:56.507Z,100477.50
2022-09-12T09:43:29.113Z,100467.97
2022-09-12T09:45:59.450Z,100471.38
2022-09-12T09:48:31.326Z,100478.72
2022-09-12T09:51:01.974Z,100485.03
2022-09-12T09:53:38.362Z,100492.72
2022-09-12T09:56:13.460Z,100494.06
2022-09-12T09:58:43.709Z,100492.16
2022-09-12T10:01:18.405Z,100497.97
2022-09-12T10:03:51.729Z,100497.50
2022-09-12T10:06:32.400Z,100484.63
2022-09-12T10:09:18.925Z,100480.31
2022-09-12T10:11:47.777Z,100479.47
2022-09-12T10:14:39.211Z,100479.34
2022-09-12T10:17:34.136Z,100479.09
2022-09-12T10:20:20.516Z,100477.22
2022-09-12T10:22:50.436Z,100475.09
2022-09-12T10:25:20.786Z,100483.50
2022-09-12T10:27:55.348Z,100494.75
2022-09-12T10:30:28.395Z,100497.13
2022-09-12T10:33:06.519Z,100502.72
2022-09-12T10:35:47.204Z,100507.56
2022-09-12T10:38:22.727Z,100500.28
2022-09-12T10:40:59.293Z,100497.72
2022-09-12T10:43:37.347Z,100489.06
2022-09-12T10:46:29.175Z,100487.84
2022-09-12T10:49:22.758Z,100480.53
2022-09-12T10:51:52.165Z,100468.31
2022-09-12T10:54:22.770Z,100461.91
2022-09-12T10:57:26.634Z,100455.34
2022-09-12T11:00:08.090Z,100463.78
2022-09-12T11:02:50.199Z,100456.50
2022-09-12T11:05:32.174Z,100462.81
2022-09-12T11:08:10.854Z,100469.34
2022-09-12T11:10:49.130Z,100468.88
2022-09-12T11:13:26.614Z,100451.25
2022-09-12T11:16:08.160Z,100461.91
2022-09-12T11:19:03.879Z,100457.13
2022-09-12T11:21:48.494Z,100454.34
2022-09-12T11:24:44.488Z,100455.38
2022-09-12T11:27:26.941Z,100449.75
2022-09-12T11:29:59.877Z,100440.75
2022-09-12T11:32:45.882Z,100437.22
2022-09-12T11:35:25.793Z,100433.34
2022-09-12T11:38:29.834Z,100429.69
2022-09-12T11:41:03.324Z,100418.97
2022-09-12T11:43:39.626Z,100416.00
2022-09-12T11:46:15.871Z,100411.03
2022-09-12T11:48:50.603Z,100415.16
2022-09-12T11:51:25.639Z,100408.09
2022-09-12T11:54:04.696Z,100406.56
2022-09-12T11:56:33.241Z,100399.75
2022-09-12T11:59:10.311Z,100405.66
2022-09-12T12:01:47.762Z,100400.66
2022-09-12T12:04:21.970Z,100395.78
2022-09-12T12:06:59.449Z,100377.03
2022-09-12T12:09:27.713Z,100362.97
2022-09-12T12:11:59.322Z,100358.00
2022-09-12T12:14:34.285Z,100359.16
2022-09-12T12:17:02.463Z,100355.88
2022-09-12T12:19:35.829Z,100343.06
2022-09-12T12:22:17.081Z,100340.13
2022-09-12T12:25:32.708Z,100337.59
2022-09-12T12:28:02.451Z,100337.97
2022-09-12T12:31:02.422Z,100335.19
2022-09-12T12:34:16.409Z,100321.25
2022-09-12T12:36:44.703Z,100313.72
2022-09-12T12:40:04.690Z,100306.09
2022-09-12T12:43:09.094Z,100308.16
2022-09-12T12:46:10.736Z,100299.84
2022-09-12T12:49:10.647Z,100300.47
2022-09-12T12:51:57.880Z,100289.28
2022-09-12T12:54:33.163Z,100283.34
2022-09-12T12:57:19.770Z,100290.13
2022-09-12T12:59:51.918Z,100284.81
2022-09-12T13:02:25.158Z,100274.84
2022-09-12T13:04:56.291Z,100277.81
2022-09-12T13:07:42.257Z,100270.22
2022-09-12T13:10:23.350Z,100282.88
2022-09-12T13:12:53.192Z,100276.53
2022-09-12T13:15:49.699Z,100274.84
2022-09-12T13:18:25.135Z,100263.03
2022-09-12T13:21:02.102Z,100255.16
2022-09-12T13:23:31.874Z,100255.44
2022-09-12T13:26:01.878Z,100253.19
2022-09-12T13:28:31.342Z,100257.56
2022-09-12T13:31:04.116Z,100247.25
2022-09-12T13:33:42.322Z,100247.56
2022-09-12T13:36:41.232Z,100237.94
2022-09-12T13:39:18.825Z,100233.47
2022-09-12T13:42:06.659Z,100232.28
2022-09-12T13:44:43.079Z,100228.00
2022-09-12T13:47:17.603Z,100236.59
2022-09-12T13:49:47.912Z,100248.91
2022-09-12T13:52:22.497Z,100239.22
2022-09-12T13:54:54.619Z,100236.84
2022-09-12T13:57:36.245Z,100238.34
2022-09-12T14:00:07.641Z,100230.34
2022-09-12T14:02:37.829Z,100231.34
2022-09-12T14:05:20.245Z,100227.66
2022-09-12T14:07:59.669Z,100234.53
2022-09-12T14:10:33.012Z,100232.13
2022-09-12T14:13:03.413Z,100226.00
2022-09-12T14:15:33.881Z,100218.63
2022-09-12T14:18:04.227Z,100221.19
2022-09-12T14:20:36.689Z,100214.22
2022-09-12T14:23:07.777Z,100213.28
2022-09-12T14:25:41.491Z,100219.69
2022-09-12T14:28:22.784Z,100212.16
2022-09-12T14:31:06.613Z,100207.75
2022-09-12T14:33:47.921Z,100202.06
2022-09-12T14:36:23.351Z,100201.22
2022-09-12T14:38:56.874Z,100210.97
2022-09-12T14:41:28.947Z,100205.75
2022-09-12T14:44:00.478Z,100207.25
2022-09-12T14:46:34.628Z,100195.34
2022-09-12T14:49:09.381Z,100184.50
2022-09-12T14:51:41.230Z,100187.41
2022-09-12T14:54:37.507Z,100194.44
2022-09-12T14:57:08.027Z,100190.66
2022-09-12T14:59:41.710Z,100189.06
2022-09-12T15:02:28.518Z,100188.84
2022-09-12T15:05:17.964Z,100182.47
2022-09-12T15:07:53.857Z,100180.25
2022-09-12T15:10:27.114Z,100183.91
2022-09-12T15:13:19.005Z,100182.19
2022-09-12T15:15:49.556Z,100174.09
2022-09-12T15:18:18.788Z,100172.06
2022-09-12T15:20:50.035Z,100168.88
2022-09-12T15:23:31.076Z,100158.97
2022-09-12T15:26:01.440Z,100155.78
2022-09-12T15:28:32.214Z,100147.56
2022-09-12T15:31:07.308Z,100149.28
2022-09-12T15:33:35.657Z,100140.09
2022-09-12T15:36:04.070Z,100136.94
2022-09-12T15:38:32.216Z,100134.44
2022-09-12T15:41:01.818Z,100131.47
2022-09-12T15:43:29.977Z,100134.88
2022-09-12T15:45:59.367Z,100136.19
2022-09-12T15:48:27.681Z,100142.94
2022-09-12T15:51:01.396Z,100143.41
2022-09-12T15:53:29.785Z,100140.00
2022-09-12T15:55:58.029Z,100131.31
2022-09-12T15:58:28.713Z,100122.25
2022-09-12T16:00:57.138Z,100119.69
2022-09-12T16:03:27.632Z,100116.53
2022-09-12T16:05:58.151Z,100109.16
2022-09-12T16:08:26.913Z,100107.00
2022-09-12T16:10:57.388Z,100106.16
2022-09-12T16:13:27.636Z,100114.19
2022-09-12T16:15:58.662Z,100119.03
2022-09-12T16:18:27.392Z,100122.22
2022-09-12T16:20:56.484Z,100122.41
2022-09-12T16:23:25.574Z,100124.34
2022-09-12T16:26:00.510Z,100122.69
2022-09-12T16:28:30.738Z,100123.16
2022-09-12T16:30:59.549Z,100128.41
2022-09-12T16:33:29.084Z,100119.53
2022-09-12T16:36:03.474Z,100121.03
2022-09-12T16:38:32.090Z,100125.69
2022-09-12T16:41:03.910Z,100134.13
2022-09-12T16:43:34.374Z,100139.41
2022-09-12T16:46:04.128Z,100143.00
2022-09-12T16:48:32.702Z,100144.50
2022-09-12T16:51:03.066Z,100146.38
2022-09-12T16:53:31.705Z,100144.06
2022-09-12T16:55:59.927Z,100130.09
2022-09-12T16:58:28.426Z,100123.94
2022-09-12T17:01:04.982Z,100124.59
2022-09-12T17:03:33.595Z,100127.72
2022-09-12T17:06:02.317Z,100124.78
2022-09-12T17:08:30.933Z,100119.66
2022-09-12T17:11:02.286Z,100116.28
2022-09-12T17:13:46.877Z,100120.28
2022-09-12T17:16:20.149Z,100112.19
2022-09-12T17:18:48.674Z,100116.91
2022-09-12T17:21:17.139Z,100131.91
2022-09-12T17:23:45.554Z,100138.72
2022-09-12T17:26:15.001Z,100138.91
2022-09-12T17:28:43.926Z,100134.44
2022-09-12T17:31:14.782Z,100141.78
2022-09-12T17:33:45.034Z,100142.47
2022-09-12T17:36:15.449Z,100149.56
2022-09-12T17:38:45.593Z,100145.50
2022-09-12T17:41:17.832Z,100129.06
2022-09-12T17:43:47.089Z,100125.44
2022-09-12T17:46:15.725Z,100130.50
2022-09-12T17:48:45.279Z,100139.09
2022-09-12T17:51:15.810Z,100122.38
2022-09-12T17:53:44.170Z,100123.41
2022-09-12T17:56:13.806Z,100131.50
2022-09-12T17:58:41.943Z,100131.56
2022-09-12T18:01:32.141Z,100133.66
2022-09-12T18:04:03.532Z,100140.75
2022-09-12T18:06:33.399Z,100138.25
2022-09-12T18:09:02.382Z,100129.72
2022-09-12T18:11:30.876Z,100121.97
2022-09-12T18:13:59.797Z,100120.38
2022-09-12T18:16:29.336Z,100130.59
2022-09-12T18:18:57.621Z,100132.63
2022-09-12T18:21:27.122Z,100133.09
2022-09-12T18:23:57.007Z,100136.00
2022-09-12T18:26:25.124Z,100132.03
2022-09-12T18:28:54.023Z,100128.59
2022-09-12T18:31:24.438Z,100135.31
2022-09-12T18:33:52.912Z,100135.16
2022-09-12T18:36:21.742Z,100128.34
2022-09-12T18:38:51.398Z,100119.94
2022-09-12T18:41:21.423Z,100136.13
2022-09-12T18:43:50.570Z,100135.44
2022-09-12T18:46:20.476Z,100141.38
2022-09-12T18:48:49.006Z,100143.69
2022-09-12T18:51:18.780Z,100142.00
2022-09-12T18:53:53.013Z,100146.84
2022-09-12T18:56:21.946Z,100150.41
2022-09-12T18:58:52.806Z,100152.81
2022-09-12T19:01:22.850Z,100147.22
2022-09-12T19:03:52.269Z,100153.47
2022-09-12T19:06:22.617Z,100149.03
2022-09-12T19:08:53.693Z,100152.19
2022-09-12T19:11:22.774Z,100161.41
2022-09-12T19:13:53.180Z,100162.09
2022-09-12T19:16:23.675Z,100177.03
2022-09-12T19:18:52.497Z,100167.63
2022-09-12T19:21:24.479Z,100165.34
2022-09-12T19:23:57.343Z,100162.72
2022-09-12T19:26:25.921Z,100158.66
2022-09-12T19:28:55.519Z,100157.72
2022-09-12T19:31:24.781Z,100151.50
2022-09-12T19:33:53.769Z,100162.53
2022-09-12T19:39:13.055Z,100158.13
2022-09-12T19:41:41.233Z,100165.03
2022-09-12T19:44:09.618Z,100165.22
2022-09-12T19:46:38.323Z,100163.22
2022-09-12T19:49:06.908Z,100174.09
2022-09-12T19:51:35.746Z,100174.81
2022-09-12T19:54:04.174Z,100180.72
2022-09-12T19:56:33.657Z,100170.56
2022-09-12T19:59:01.861Z,100177.19
2022-09-12T20:01:30.304Z,100172.09
2022-09-12T20:03:58.915Z,100174.94
2022-09-12T20:06:27.957Z,100166.00
2022-09-12T20:08:56.650Z,100182.47
2022-09-12T20:11:25.849Z,100180.28
2022-09-12T20:13:55.398Z,100182.44
2022-09-12T20:16:25.784Z,100186.03
2022-09-12T20:18:55.630Z,100187.72
2022-09-12T20:21:31.210Z,100192.34
2022-09-12T20:24:04.997Z,100194.78
2022-09-12T20:26:33.247Z,100197.81
2022-09-12T20:29:03.345Z,100192.25
2022-09-12T20:31:32.041Z,100196.81
2022-09-12T20:34:00.473Z,100190.09
2022-09-12T20:36:28.795Z,100192.44
2022-09-12T20:38:59.982Z,100188.13
2022-09-12T20:41:29.536Z,100186.41
2022-09-12T20:43:58.606Z,100188.50
2022-09-12T20:46:29.857Z,100180.94
2022-09-12T20:48:58.976Z,100179.84
2022-09-12T20:51:29.701Z,100178.94
2022-09-12T20:53:58.558Z,100181.91
2022-09-12T20:56:27.553Z,100183.09
2022-09-12T20:58:57.047Z,100167.38
2022-09-12T21:01:27.636Z,100167.75
2022-09-12T21:03:56.075Z,100170.56
2022-09-12T21:06:24.743Z,100162.47
2022-09-12T21:08:53.008Z,100170.38
2022-09-12T21:11:21.712Z,100166.41
2022-09-12T21:13:50.354Z,100159.91
2022-09-12T21:16:20.552Z,100154.00
2022-09-12T21:18:55.085Z,100157.19
2022-09-12T21:21:23.772Z,100151.91
2022-09-12T21:23:52.029Z,100151.53
2022-09-12T21:26:20.178Z,100145.41
2022-09-12T21:28:49.731Z,100149.47
2022-09-12T21:31:17.950Z,100148.41
2022-09-12T21:33:46.323Z,100149.16
2022-09-12T21:36:15.859Z,100147.41
2022-09-12T21:38:44.094Z,100142.94
2022-09-12T21:41:14.469Z,100147.34
2022-09-12T21:43:43.253Z,100138.22
2022-09-12T21:46:12.432Z,100139.06
2022-09-12T21:48:40.665Z,100129.00
2022-09-12T21:51:08.917Z,100117.97
2022-09-12T21:53:38.521Z,100102.72
2022-09-12T21:56:08.580Z,100096.63
2022-09-12T21:58:37.622Z,100099.44
2022-09-12T22:01:08.719Z,100103.84
2022-09-12T22:03:36.988Z,100104.50
2022-09-12T22:06:07.477Z,100115.91
2022-09-12T22:08:37.286Z,100114.66
2022-09-12T22:11:09.685Z,100127.00
2022-09-12T22:13:39.588Z,100125.50
2022-09-12T22:16:08.456Z,100130.13
2022-09-12T22:18:38.550Z,100126.00
2022-09-12T22:21:09.562Z,100133.88
2022-09-12T22:23:54.940Z,100134.16
2022-09-12T22:26:24.731Z,100133.28
2022-09-12T22:28:53.330Z,100126.16
2022-09-12T22:31:22.003Z,100127.09
2022-09-12T22:33:50.902Z,100125.78
2022-09-12T22:36:19.131Z,100125.59
2022-09-12T22:38:47.464Z,100120.13
2022-09-12T22:41:15.944Z,100124.66
2022-09-12T22:43:45.626Z,100122.72
2022-09-12T22:46:14.200Z,100122.66
2022-09-12T22:48:42.852Z,100121.66
2022-09-12T22:51:11.154Z,100130.88
2022-09-12T22:53:39.730Z,100120.06
2022-09-12T22:56:09.034Z,100115.00
2022-09-12T22:58:38.300Z,100108.34
2022-09-12T23:01:08.181Z,100115.50
2022-09-12T23:03:37.243Z,100111.13
2022-09-12T23:06:06.287Z,100111.28
2022-09-12T23:08:36.747Z,100107.75
2022-09-12T23:11:06.924Z,100103.13
2022-09-12T23:13:35.053Z,100100.34
2022-09-12T23:16:05.691Z,100105.00
2022-09-12T23:18:37.405Z,100105.44
2022-09-12T23:21:08.234Z,100108.09
2022-09-12T23:23:37.581Z,100107.59
2022-09-12T23:26:07.638Z,100097.56
2022-09-12T23:28:36.505Z,100097.56
2022-09-12T23:31:05.475Z,100096.31
2022-09-12T23:33:34.202Z,100098.81
2022-09-12T23:36:06.262Z,100108.81
2022-09-12T23:38:36.402Z,100119.00
2022-09-12T23:41:05.485Z,100118.91
2022-09-12T23:43:34.107Z,100114.47
2022-09-12T23:46:02.921Z,100126.53
2022-09-12T23:48:31.307Z,100124.69
2022-09-12T23:50:59.561Z,100123.50
2022-09-12T23:53:29.648Z,100119.75
2022-09-12T23:55:58.150Z,100126.41
2022-09-12T23:58:26.722Z,100128.41
